AIRPORT ID: 9D1

DATE: 2023-09-22 ZULU TIME: 1.55 LOCAL TIME: 20.55


METAR K9D1 220155Z AUTO 09005KT 4SM HZ 16/12 A3002

ALTIMETER: A3002 Q1017

DENSITY ALT: 2600 Ft

WIND DIRECT: 100

WIND SPEED: 5 Gust

WIND CONDITIONS:

VISIBILTY: 4SM 6400M

TEMPERATURE: 60 F 16 C

DEW POINT: 54 F 12 C

HUMID: 80%

LCL: 1,000-3,000 feet

RADIO CHECK: 1

ADVISARIES: 1

GREETINGS: 0

CONVERSATIONS: 0